createdAt,value
2022-11-06T00:00:55.860Z,10.43
2022-11-06T00:03:22.528Z,9.03
2022-11-06T00:06:07.618Z,8.83
2022-11-06T00:08:37.033Z,11.40
2022-11-06T00:11:12.422Z,9.90
2022-11-06T00:13:39.645Z,7.77
2022-11-06T00:16:08.449Z,11.07
2022-11-06T00:18:35.901Z,11.17
2022-11-06T00:21:11.441Z,13.57
2022-11-06T00:23:38.376Z,14.30
2022-11-06T00:26:08.898Z,10.37
2022-11-06T00:28:35.946Z,8.97
2022-11-06T00:31:04.992Z,11.07
2022-11-06T00:33:31.779Z,9.40
2022-11-06T00:35:58.490Z,9.57
2022-11-06T00:38:25.665Z,11.83
2022-11-06T00:40:52.209Z,11.80
2022-11-06T00:43:18.753Z,11.60
2022-11-06T00:45:45.307Z,11.80
2022-11-06T00:48:12.158Z,11.77
2022-11-06T00:50:39.083Z,11.53
2022-11-06T00:53:05.613Z,11.47
2022-11-06T00:55:32.198Z,10.33
2022-11-06T00:57:58.754Z,11.77
2022-11-06T01:00:25.659Z,10.60
2022-11-06T01:02:52.332Z,10.73
2022-11-06T01:05:19.074Z,10.87
2022-11-06T01:07:45.689Z,10.73
2022-11-06T01:10:12.380Z,12.33
2022-11-06T01:12:39.091Z,12.70
2022-11-06T01:15:06.276Z,12.57
2022-11-06T01:17:34.172Z,11.80
2022-11-06T01:20:00.782Z,15.97
2022-11-06T01:22:27.358Z,10.57
2022-11-06T01:24:53.937Z,10.93
2022-11-06T01:27:26.388Z,11.70
2022-11-06T01:29:53.772Z,12.83
2022-11-06T01:32:20.568Z,13.97
2022-11-06T01:34:49.684Z,13.70
2022-11-06T01:37:16.221Z,11.87
2022-11-06T01:39:42.921Z,10.23
2022-11-06T01:42:15.214Z,13.20
2022-11-06T01:44:44.768Z,10.33
2022-11-06T01:47:26.873Z,9.63
2022-11-06T01:49:57.233Z,16.73
2022-11-06T01:52:24.707Z,11.07
2022-11-06T01:54:55.909Z,10.57
2022-11-06T01:57:22.607Z,10.00
2022-11-06T01:59:51.538Z,13.37
2022-11-06T02:02:18.946Z,10.33
2022-11-06T02:04:48.325Z,10.97
2022-11-06T02:07:16.634Z,12.43
2022-11-06T02:09:43.360Z,14.07
2022-11-06T02:12:38.439Z,13.07
2022-11-06T02:15:23.672Z,11.63
2022-11-06T02:18:15.381Z,13.17
2022-11-06T02:21:06.178Z,10.00
2022-11-06T02:24:16.082Z,11.13
2022-11-06T02:26:57.131Z,10.17
2022-11-06T02:29:34.641Z,12.87
2022-11-06T02:32:07.450Z,10.70
2022-11-06T02:34:36.557Z,8.80
2022-11-06T02:37:10.130Z,9.63
2022-11-06T02:39:40.819Z,14.27
2022-11-06T02:42:09.974Z,11.73
2022-11-06T02:44:37.882Z,10.60
2022-11-06T02:47:10.269Z,11.70
2022-11-06T02:49:57.516Z,11.90
2022-11-06T02:52:36.922Z,10.87
2022-11-06T02:55:11.391Z,10.37
2022-11-06T02:57:41.860Z,12.83
2022-11-06T03:00:15.342Z,12.47
2022-11-06T03:03:14.661Z,10.00
2022-11-06T03:05:54.824Z,9.73
2022-11-06T03:08:31.752Z,11.27
2022-11-06T03:11:24.193Z,11.70
2022-11-06T03:14:09.463Z,10.13
2022-11-06T03:16:57.742Z,10.83
2022-11-06T03:19:32.473Z,11.33
2022-11-06T03:22:08.993Z,13.93
2022-11-06T03:24:44.364Z,12.13
2022-11-06T03:27:22.383Z,14.00
2022-11-06T03:29:54.958Z,16.83
2022-11-06T03:32:40.433Z,14.53
2022-11-06T03:35:12.698Z,12.63
2022-11-06T03:38:01.662Z,9.80
2022-11-06T03:40:31.880Z,11.83
2022-11-06T03:43:03.169Z,11.50
2022-11-06T03:45:32.188Z,11.53
2022-11-06T03:48:13.593Z,9.10
2022-11-06T03:50:45.276Z,10.13
2022-11-06T03:53:21.223Z,14.53
2022-11-06T03:55:55.438Z,13.10
2022-11-06T03:58:25.903Z,10.30
2022-11-06T04:00:54.570Z,8.77
2022-11-06T04:03:29.041Z,12.73
2022-11-06T04:06:15.496Z,11.60
2022-11-06T04:09:01.934Z,8.77
2022-11-06T04:11:49.457Z,10.07
2022-11-06T04:14:18.101Z,14.10
2022-11-06T04:16:51.457Z,10.23
2022-11-06T04:19:22.804Z,10.83
2022-11-06T04:22:26.912Z,10.17
2022-11-06T04:25:26.412Z,12.80
2022-11-06T04:28:26.733Z,11.80
2022-11-06T04:31:19.434Z,12.17
2022-11-06T04:33:59.929Z,9.07
2022-11-06T04:36:46.626Z,11.93
2022-11-06T04:39:41.026Z,11.27
2022-11-06T04:42:37.959Z,11.33
2022-11-06T04:45:17.195Z,11.33
2022-11-06T04:47:46.062Z,13.27
2022-11-06T04:50:17.098Z,11.07
2022-11-06T04:52:44.962Z,14.80
2022-11-06T04:55:11.485Z,11.83
2022-11-06T04:57:38.064Z,10.53
2022-11-06T05:00:06.415Z,15.13
2022-11-06T05:02:32.999Z,11.90
2022-11-06T05:04:59.518Z,9.83
2022-11-06T05:07:26.050Z,9.57
2022-11-06T05:09:52.918Z,13.00
2022-11-06T05:12:19.456Z,14.13
2022-11-06T05:14:45.982Z,11.30
2022-11-06T05:17:12.846Z,13.03
2022-11-06T05:19:39.379Z,11.43
2022-11-06T05:22:24.696Z,10.77
2022-11-06T05:24:51.258Z,10.73
2022-11-06T05:27:17.857Z,12.47
2022-11-06T05:29:44.514Z,12.47
2022-11-06T05:32:11.061Z,11.60
2022-11-06T05:34:37.602Z,9.83
2022-11-06T05:37:04.202Z,10.40
2022-11-06T05:39:30.782Z,10.03
2022-11-06T05:41:57.306Z,10.67
2022-11-06T05:44:23.967Z,9.40
2022-11-06T05:46:50.546Z,10.27
2022-11-06T05:49:18.645Z,11.47
2022-11-06T05:51:45.527Z,10.40
2022-11-06T05:54:12.863Z,11.73
2022-11-06T05:56:39.506Z,9.73
2022-11-06T05:59:06.321Z,13.07
2022-11-06T06:01:33.026Z,14.93
2022-11-06T06:03:59.631Z,11.87
2022-11-06T06:06:26.750Z,11.10
2022-11-06T06:08:53.303Z,10.53
2022-11-06T06:11:19.998Z,12.40
2022-11-06T06:13:48.212Z,11.10
2022-11-06T06:16:14.738Z,11.67
2022-11-06T06:18:41.278Z,13.80
2022-11-06T06:21:07.839Z,12.73
2022-11-06T06:23:34.411Z,14.37
2022-11-06T06:26:01.072Z,14.07
2022-11-06T06:28:27.641Z,12.20
2022-11-06T06:31:00.071Z,11.83
2022-11-06T06:33:28.022Z,11.50
2022-11-06T06:35:54.553Z,12.10
2022-11-06T06:38:21.081Z,12.80
2022-11-06T06:40:47.656Z,13.43
2022-11-06T06:43:14.366Z,11.87
2022-11-06T06:45:41.012Z,11.27
2022-11-06T06:48:07.819Z,11.37
2022-11-06T06:50:34.540Z,9.63
2022-11-06T06:53:01.514Z,12.90
2022-11-06T06:55:28.507Z,11.20
2022-11-06T06:57:59.495Z,15.13
2022-11-06T07:00:26.831Z,14.07
2022-11-06T07:02:53.458Z,15.03
2022-11-06T07:05:20.558Z,10.43
2022-11-06T07:07:47.344Z,12.13
2022-11-06T07:10:14.204Z,11.63
2022-11-06T07:12:40.798Z,14.77
2022-11-06T07:15:08.271Z,10.40
2022-11-06T07:17:34.814Z,10.53
2022-11-06T07:20:01.414Z,11.13
2022-11-06T07:22:35.460Z,12.00
2022-11-06T07:25:04.403Z,11.13
2022-11-06T07:27:30.963Z,11.73
2022-11-06T07:29:57.585Z,11.47
2022-11-06T07:32:24.145Z,10.83
2022-11-06T07:34:50.674Z,9.97
2022-11-06T07:37:17.245Z,10.57
2022-11-06T07:39:43.836Z,12.33
2022-11-06T07:42:10.446Z,11.00
2022-11-06T07:44:37.037Z,10.80
2022-11-06T07:47:03.591Z,12.57
2022-11-06T07:49:30.187Z,10.40
2022-11-06T07:51:56.795Z,10.63
2022-11-06T07:54:23.397Z,12.73
2022-11-06T07:56:49.943Z,13.17
2022-11-06T07:59:16.534Z,11.37
2022-11-06T08:01:43.282Z,12.27
2022-11-06T08:04:10.714Z,11.90
2022-11-06T08:06:37.281Z,11.23
2022-11-06T08:09:08.281Z,10.63
2022-11-06T08:11:35.075Z,10.53
2022-11-06T08:14:01.954Z,14.17
2022-11-06T08:16:28.982Z,9.73
2022-11-06T08:18:55.894Z,9.90
2022-11-06T08:21:22.566Z,10.10
2022-11-06T08:23:49.190Z,10.97
2022-11-06T08:26:15.992Z,12.03
2022-11-06T08:28:42.733Z,11.30
2022-11-06T08:31:09.668Z,11.03
2022-11-06T08:33:38.376Z,10.17
2022-11-06T08:36:06.285Z,9.30
2022-11-06T08:38:32.861Z,11.60
2022-11-06T08:41:03.886Z,11.63
2022-11-06T08:43:30.432Z,10.90
2022-11-06T08:45:56.975Z,11.70
2022-11-06T08:48:27.034Z,10.37
2022-11-06T08:50:53.653Z,8.97
2022-11-06T08:53:20.249Z,10.90
2022-11-06T08:55:47.091Z,10.23
2022-11-06T08:58:14.098Z,12.70
2022-11-06T09:00:41.013Z,10.93
2022-11-06T09:03:11.415Z,9.60
2022-11-06T09:05:43.185Z,10.87
2022-11-06T09:08:11.081Z,12.07
2022-11-06T09:10:39.510Z,12.33
2022-11-06T09:13:06.699Z,11.93
2022-11-06T09:15:33.660Z,11.40
2022-11-06T09:18:00.279Z,10.57
2022-11-06T09:20:29.180Z,10.37
2022-11-06T09:23:01.881Z,14.10
2022-11-06T09:25:29.252Z,11.17
2022-11-06T09:27:59.378Z,10.17
2022-11-06T09:30:28.874Z,9.03
2022-11-06T09:32:58.476Z,10.80
2022-11-06T09:35:29.066Z,10.73
2022-11-06T09:38:04.697Z,8.97
2022-11-06T09:40:53.106Z,10.23
2022-11-06T09:46:24.635Z,8.63
2022-11-06T09:49:01.655Z,8.63
2022-11-06T09:52:00.673Z,10.50
2022-11-06T09:54:40.884Z,11.13
2022-11-06T09:57:17.663Z,8.80
2022-11-06T09:59:45.174Z,8.37
2022-11-06T10:02:31.804Z,9.27
2022-11-06T10:05:08.770Z,8.70
2022-11-06T10:07:39.450Z,10.20
2022-11-06T10:10:11.537Z,11.23
2022-11-06T10:12:47.185Z,7.63
2022-11-06T10:15:51.071Z,10.03
2022-11-06T10:18:55.361Z,8.47
2022-11-06T10:21:25.998Z,9.57
2022-11-06T10:24:05.715Z,7.20
2022-11-06T10:26:45.552Z,9.00
2022-11-06T10:29:34.361Z,8.67
2022-11-06T10:32:30.701Z,9.93
2022-11-06T10:35:05.758Z,8.63
2022-11-06T10:37:49.681Z,8.43
2022-11-06T10:40:24.037Z,9.80
2022-11-06T10:43:19.027Z,8.23
2022-11-06T10:45:52.635Z,8.43
2022-11-06T10:48:34.425Z,9.43
2022-11-06T10:51:24.038Z,7.13
2022-11-06T10:54:07.436Z,8.63
2022-11-06T10:56:51.530Z,8.40
2022-11-06T10:59:18.511Z,8.17
2022-11-06T11:01:45.106Z,11.03
2022-11-06T11:04:11.804Z,9.60
2022-11-06T11:06:41.778Z,8.30
2022-11-06T11:09:29.265Z,7.70
2022-11-06T11:11:55.924Z,7.70
2022-11-06T11:14:25.350Z,8.73
2022-11-06T11:16:52.285Z,6.90
2022-11-06T11:19:36.811Z,8.37
2022-11-06T11:22:06.009Z,8.53
2022-11-06T11:24:32.891Z,8.57
2022-11-06T11:27:05.455Z,6.53
2022-11-06T11:29:45.157Z,9.30
2022-11-06T11:32:16.729Z,7.03
2022-11-06T11:34:53.896Z,8.67
2022-11-06T11:37:30.382Z,9.10
2022-11-06T11:40:19.617Z,6.27
2022-11-06T11:42:46.206Z,7.40
2022-11-06T11:45:15.785Z,8.60
2022-11-06T11:47:46.633Z,8.97
2022-11-06T11:50:32.191Z,9.63
2022-11-06T11:53:20.166Z,8.47
2022-11-06T11:55:50.476Z,9.40
2022-11-06T11:58:23.820Z,9.73
2022-11-06T12:00:57.981Z,8.90
2022-11-06T12:03:28.994Z,8.40
2022-11-06T12:06:06.501Z,8.87
2022-11-06T12:08:33.461Z,6.77
2022-11-06T12:11:05.883Z,6.90
2022-11-06T12:13:32.544Z,8.80
2022-11-06T12:16:03.878Z,8.47
2022-11-06T12:18:47.595Z,7.97
2022-11-06T12:21:36.021Z,8.70
2022-11-06T12:24:20.061Z,9.40
2022-11-06T12:27:02.134Z,4.83
2022-11-06T12:29:36.353Z,8.07
2022-11-06T12:32:38.754Z,9.57
2022-11-06T12:35:13.672Z,6.90
2022-11-06T12:38:00.650Z,8.40
2022-11-06T12:40:41.167Z,5.90
2022-11-06T12:43:29.752Z,7.60
2022-11-06T12:46:05.148Z,7.83
2022-11-06T12:48:59.699Z,6.50
2022-11-06T12:51:47.518Z,7.30
2022-11-06T12:54:39.975Z,8.00
2022-11-06T12:57:39.010Z,6.23
2022-11-06T13:00:17.958Z,4.87
2022-11-06T13:03:13.184Z,5.87
2022-11-06T13:05:52.463Z,5.27
2022-11-06T13:08:49.377Z,9.70
2022-11-06T13:11:29.370Z,7.13
2022-11-06T13:14:11.666Z,7.53
2022-11-06T13:17:20.178Z,6.57
2022-11-06T13:19:57.558Z,5.73
2022-11-06T13:22:44.768Z,6.87
2022-11-06T13:25:36.530Z,5.57
2022-11-06T13:28:41.285Z,5.93
2022-11-06T13:31:11.924Z,4.83
2022-11-06T13:33:46.802Z,6.00
2022-11-06T13:36:13.984Z,5.73
2022-11-06T13:38:58.146Z,5.67
2022-11-06T13:41:29.885Z,5.73
2022-11-06T13:44:08.167Z,9.97
2022-11-06T13:46:52.872Z,7.20
2022-11-06T13:49:38.830Z,6.80
2022-11-06T13:52:30.030Z,6.17
2022-11-06T13:55:06.829Z,6.27
2022-11-06T13:57:55.946Z,8.23
2022-11-06T14:00:35.427Z,7.27
2022-11-06T14:03:48.018Z,6.23
2022-11-06T14:06:20.860Z,5.87
2022-11-06T14:09:00.477Z,5.73
2022-11-06T14:11:42.631Z,6.10
2022-11-06T14:14:23.174Z,4.90
2022-11-06T14:17:10.421Z,4.63
2022-11-06T14:19:37.415Z,5.70
2022-11-06T14:22:09.713Z,5.90
2022-11-06T14:24:41.410Z,4.37
2022-11-06T14:27:33.945Z,6.50
2022-11-06T14:31:10.521Z,4.37
2022-11-06T14:33:45.894Z,5.03
2022-11-06T14:36:32.481Z,5.33
2022-11-06T14:38:59.104Z,6.03
2022-11-06T14:41:53.247Z,5.50
2022-11-06T14:44:33.170Z,4.17
2022-11-06T14:47:02.965Z,4.87
2022-11-06T14:49:51.086Z,7.13
2022-11-06T14:52:18.484Z,6.57
2022-11-06T14:55:03.402Z,5.63
2022-11-06T14:57:52.110Z,7.33
2022-11-06T15:00:58.799Z,3.80
2022-11-06T15:03:40.441Z,5.10
2022-11-06T15:06:33.580Z,5.17
2022-11-06T15:09:15.632Z,6.30
2022-11-06T15:11:47.788Z,4.27
2022-11-06T15:14:14.666Z,5.67
2022-11-06T15:16:55.687Z,7.90
2022-11-06T15:19:26.560Z,5.57
2022-11-06T15:22:15.598Z,4.03
2022-11-06T15:24:54.364Z,6.27
2022-11-06T15:27:26.885Z,5.60
2022-11-06T15:29:58.365Z,6.63
2022-11-06T15:32:27.606Z,6.37
2022-11-06T15:35:08.021Z,4.73
2022-11-06T15:37:53.507Z,4.80
2022-11-06T15:40:39.632Z,4.90
2022-11-06T15:43:09.031Z,5.13
2022-11-06T15:45:35.662Z,5.87
2022-11-06T15:48:05.522Z,4.40
2022-11-06T15:50:37.007Z,8.03
2022-11-06T15:53:18.388Z,5.23
2022-11-06T15:55:53.978Z,6.07
2022-11-06T15:58:23.058Z,5.23
2022-11-06T16:00:51.440Z,4.63
2022-11-06T16:03:21.037Z,5.90
2022-11-06T16:05:48.528Z,4.80
2022-11-06T16:08:17.847Z,4.17
2022-11-06T16:10:48.150Z,6.33
2022-11-06T16:13:18.261Z,4.23
2022-11-06T16:15:51.373Z,4.57
2022-11-06T16:18:28.494Z,5.00
2022-11-06T16:21:10.942Z,7.20
2022-11-06T16:23:46.924Z,6.20
2022-11-06T16:26:37.244Z,5.93
2022-11-06T16:29:17.830Z,5.63
2022-11-06T16:31:45.601Z,7.90
2022-11-06T16:34:38.497Z,6.57
2022-11-06T16:37:27.922Z,5.87
2022-11-06T16:39:55.909Z,8.17
2022-11-06T16:42:22.429Z,6.37
2022-11-06T16:45:10.208Z,5.00
2022-11-06T16:47:36.980Z,6.23
2022-11-06T16:50:05.873Z,6.27
2022-11-06T16:52:40.082Z,6.27
2022-11-06T16:55:25.413Z,6.20
2022-11-06T16:57:59.381Z,7.27
2022-11-06T17:00:29.628Z,6.17
2022-11-06T17:03:02.451Z,6.27
2022-11-06T17:05:33.531Z,8.17
2022-11-06T17:08:26.232Z,10.90
2022-11-06T17:10:59.631Z,7.20
2022-11-06T17:13:28.332Z,8.30
2022-11-06T17:16:00.787Z,11.97
2022-11-06T17:18:32.392Z,8.93
2022-11-06T17:21:01.221Z,8.30
2022-11-06T17:23:28.866Z,8.33
2022-11-06T17:26:02.063Z,9.20
2022-11-06T17:28:28.942Z,6.00
2022-11-06T17:30:55.693Z,6.50
2022-11-06T17:33:22.558Z,6.87
2022-11-06T17:35:49.688Z,7.57
2022-11-06T17:38:17.790Z,7.70
2022-11-06T17:40:45.605Z,6.13
2022-11-06T17:43:12.731Z,5.57
2022-11-06T17:45:41.727Z,10.40
2022-11-06T17:48:08.350Z,6.80
2022-11-06T17:50:54.843Z,6.87
2022-11-06T17:53:21.482Z,8.00
2022-11-06T17:55:48.108Z,8.23
2022-11-06T17:58:15.015Z,6.87
2022-11-06T18:00:42.638Z,8.30
2022-11-06T18:03:17.823Z,8.67
2022-11-06T18:05:44.867Z,9.13
2022-11-06T18:08:12.847Z,8.13
2022-11-06T18:10:39.709Z,8.43
2022-11-06T18:13:07.087Z,7.57
2022-11-06T18:15:35.141Z,7.53
2022-11-06T18:18:01.853Z,8.47
2022-11-06T18:20:28.443Z,9.33
2022-11-06T18:22:55.197Z,7.07
2022-11-06T18:25:21.742Z,7.27
2022-11-06T18:27:48.272Z,9.03
2022-11-06T18:30:14.873Z,7.37
2022-11-06T18:32:41.436Z,6.53
2022-11-06T18:35:08.546Z,6.90
2022-11-06T18:37:35.166Z,8.07
2022-11-06T18:40:01.707Z,9.47
2022-11-06T18:42:28.462Z,7.87
2022-11-06T18:44:55.015Z,7.23
2022-11-06T18:47:21.557Z,7.23
2022-11-06T18:49:48.346Z,8.87
2022-11-06T18:52:27.730Z,9.53
2022-11-06T18:55:01.564Z,7.57
2022-11-06T18:57:29.615Z,7.77
2022-11-06T18:59:56.179Z,7.17
2022-11-06T19:02:23.417Z,8.70
2022-11-06T19:04:50.144Z,7.33
2022-11-06T19:07:16.802Z,8.33
2022-11-06T19:09:43.345Z,8.33
2022-11-06T19:12:10.182Z,9.33
2022-11-06T19:14:36.833Z,10.53
2022-11-06T19:17:03.666Z,9.90
2022-11-06T19:19:30.482Z,11.60
2022-11-06T19:21:57.030Z,9.10
2022-11-06T19:24:23.549Z,8.93
2022-11-06T19:26:50.295Z,9.40
2022-11-06T19:29:16.889Z,9.13
2022-11-06T19:31:43.495Z,9.80
2022-11-06T19:34:13.785Z,10.57
2022-11-06T19:36:40.367Z,10.40
2022-11-06T19:39:07.354Z,12.07
2022-11-06T19:41:33.973Z,10.53
2022-11-06T19:44:00.521Z,10.90
2022-11-06T19:46:32.326Z,12.30
2022-11-06T19:49:03.286Z,13.20
2022-11-06T19:51:33.873Z,9.87
2022-11-06T19:54:01.605Z,13.20
2022-11-06T19:56:28.201Z,11.40
2022-11-06T19:58:54.820Z,10.53
2022-11-06T20:01:22.189Z,11.10
2022-11-06T20:03:49.186Z,11.80
2022-11-06T20:06:16.413Z,12.07
2022-11-06T20:08:43.293Z,11.50
2022-11-06T20:11:12.929Z,11.30
2022-11-06T20:13:41.201Z,10.73
2022-11-06T20:16:11.424Z,12.03
2022-11-06T20:18:38.255Z,12.20
2022-11-06T20:21:08.057Z,12.90
2022-11-06T20:23:34.819Z,12.73
2022-11-06T20:26:01.677Z,16.47
2022-11-06T20:28:28.530Z,13.03
2022-11-06T20:30:56.147Z,14.67
2022-11-06T20:33:23.113Z,12.87
2022-11-06T20:35:49.732Z,12.90
2022-11-06T20:38:16.757Z,13.20
2022-11-06T20:40:43.281Z,13.60
2022-11-06T20:43:10.385Z,12.53
2022-11-06T20:45:37.661Z,13.23
2022-11-06T20:48:05.792Z,13.57
2022-11-06T20:50:32.699Z,13.23
2022-11-06T20:53:02.553Z,13.70
2022-11-06T20:55:29.582Z,11.60
2022-11-06T20:57:56.322Z,15.00
2022-11-06T21:00:23.152Z,12.83
2022-11-06T21:02:49.903Z,13.33
2022-11-06T21:05:16.747Z,15.30
2022-11-06T21:07:43.322Z,13.20
2022-11-06T21:10:10.918Z,13.67
2022-11-06T21:12:38.376Z,14.03
2022-11-06T21:15:05.801Z,13.70
2022-11-06T21:17:32.920Z,14.03
2022-11-06T21:20:00.373Z,17.10
2022-11-06T21:22:27.138Z,13.27
2022-11-06T21:24:53.675Z,13.83
2022-11-06T21:27:20.513Z,15.63
2022-11-06T21:29:47.370Z,14.63
2022-11-06T21:32:13.905Z,16.37
2022-11-06T21:34:42.489Z,13.70
2022-11-06T21:37:09.078Z,14.43
2022-11-06T21:39:36.654Z,15.80
2022-11-06T21:42:06.048Z,14.73
2022-11-06T21:44:32.774Z,16.43
2022-11-06T21:46:59.371Z,14.27
2022-11-06T21:49:26.067Z,14.97
2022-11-06T21:51:52.713Z,17.63
2022-11-06T21:54:38.046Z,14.37
2022-11-06T21:57:04.642Z,18.30
2022-11-06T21:59:31.423Z,18.30
2022-11-06T22:01:58.445Z,16.43
2022-11-06T22:04:25.205Z,16.10
2022-11-06T22:06:52.545Z,16.33
2022-11-06T22:09:24.571Z,16.67
2022-11-06T22:11:51.729Z,15.90
2022-11-06T22:14:18.292Z,17.07
2022-11-06T22:16:46.450Z,15.43
2022-11-06T22:19:13.957Z,16.40
2022-11-06T22:21:40.773Z,16.27
2022-11-06T22:24:07.971Z,14.93
2022-11-06T22:26:35.678Z,14.23
2022-11-06T22:29:06.112Z,17.00
2022-11-06T22:31:32.850Z,17.07
2022-11-06T22:33:59.511Z,18.40
2022-11-06T22:36:26.312Z,17.03
2022-11-06T22:38:53.218Z,15.63
2022-11-06T22:41:23.584Z,15.97
2022-11-06T22:43:51.227Z,18.03
2022-11-06T22:46:22.898Z,16.60
2022-11-06T22:48:51.045Z,14.17
2022-11-06T22:51:21.177Z,16.00
2022-11-06T22:53:48.108Z,14.97
2022-11-06T22:56:14.733Z,14.97
2022-11-06T22:58:42.284Z,16.83
2022-11-06T23:01:10.619Z,17.17
2022-11-06T23:03:38.039Z,18.57
2022-11-06T23:06:06.682Z,14.90
2022-11-06T23:08:34.070Z,16.70
2022-11-06T23:11:10.684Z,17.50
2022-11-06T23:13:37.938Z,15.20
2022-11-06T23:16:17.186Z,16.50
2022-11-06T23:18:43.818Z,15.23
2022-11-06T23:21:16.079Z,14.50
2022-11-06T23:23:43.439Z,18.47
2022-11-06T23:26:18.336Z,15.07
2022-11-06T23:28:45.768Z,15.17
2022-11-06T23:31:13.893Z,15.43
2022-11-06T23:33:40.518Z,16.20
2022-11-06T23:36:12.947Z,15.93
2022-11-06T23:38:39.978Z,16.03
2022-11-06T23:41:30.721Z,15.40
2022-11-06T23:43:57.561Z,13.90
2022-11-06T23:46:32.170Z,15.20
2022-11-06T23:48:58.975Z,16.00
2022-11-06T23:51:26.711Z,14.97
2022-11-06T23:53:53.671Z,15.93
2022-11-06T23:56:20.380Z,17.00
2022-11-06T23:58:47.006Z,14.80
